Time;durP1;ratioP1;P1;durP2;ratioP2;P2;SDS_P1;SDS_P2;PMS_P1;PMS_P2;Temp;Humidity;BMP_temperature;BMP_pressure;BME280_temperature;BME280_humidity;BME280_pressure;Samples;Min_cycle;Max_cycle;Signal;HPM_P1;HPM_P2
2022/03/12 00:00:07;;;;;;;14.80;12.70;;;5.50;97.60;;;;;;5053002;28;20215;-77
2022/03/12 00:02:39;;;;;;;15.97;12.50;;;5.40;97.30;;;;;;5053767;28;20202;-77
2022/03/12 00:05:08;;;;;;;13.97;12.47;;;5.50;97.40;;;;;;5053754;28;20191;-77
2022/03/12 00:07:35;;;;;;;14.77;12.37;;;5.50;97.10;;;;;;5052860;28;20275;-77
2022/03/12 00:10:05;;;;;;;15.13;13.10;;;5.50;97.10;;;;;;5034834;28;20281;-77
2022/03/12 00:12:36;;;;;;;15.53;13.17;;;5.50;97.30;;;;;;5050185;28;20207;-77
2022/03/12 00:15:09;;;;;;;14.63;12.03;;;5.50;97.40;;;;;;5053373;28;20276;-77
2022/03/12 00:17:39;;;;;;;15.77;12.87;;;5.50;97.20;;;;;;5034805;28;20667;-77
2022/03/12 00:20:12;;;;;;;15.83;13.60;;;5.50;97.30;;;;;;5053477;28;20230;-78
2022/03/12 00:22:41;;;;;;;13.40;12.00;;;5.50;97.30;;;;;;5035062;28;20718;-77
2022/03/12 00:25:11;;;;;;;14.40;12.90;;;5.50;97.40;;;;;;5027128;28;20667;-77
2022/03/12 00:27:41;;;;;;;19.93;15.13;;;5.50;97.70;;;;;;5034658;28;20199;-77
2022/03/12 00:30:11;;;;;;;16.23;14.07;;;5.40;98.60;;;;;;5047375;28;20234;-77
2022/03/12 00:32:38;;;;;;;22.30;14.03;;;5.30;99.10;;;;;;5053037;28;20215;-77
2022/03/12 00:35:08;;;;;;;19.07;14.83;;;5.10;99.10;;;;;;5053023;28;20203;-77
2022/03/12 00:37:36;;;;;;;15.27;13.67;;;5.10;99.40;;;;;;5034553;28;20214;-77
2022/03/12 00:40:03;;;;;;;16.17;13.90;;;5.00;99.60;;;;;;5044176;28;20219;-77
2022/03/12 00:42:32;;;;;;;16.90;15.10;;;5.00;99.50;;;;;;5052830;28;20282;-77
2022/03/12 00:44:59;;;;;;;17.87;14.17;;;4.90;99.30;;;;;;5035124;28;20210;-76
2022/03/12 00:47:27;;;;;;;16.03;14.07;;;4.90;99.30;;;;;;5028859;28;20211;-77
2022/03/12 00:49:55;;;;;;;17.47;14.30;;;4.90;99.10;;;;;;5052550;28;20219;-76
2022/03/12 00:52:22;;;;;;;16.07;14.37;;;4.90;98.90;;;;;;5052239;28;20212;-77
2022/03/12 00:54:49;;;;;;;16.77;13.47;;;4.80;99.30;;;;;;5052905;28;20278;-76
2022/03/12 00:57:16;;;;;;;17.03;14.17;;;4.80;99.20;;;;;;5034064;28;20210;-77
2022/03/12 00:59:44;;;;;;;16.10;14.17;;;4.80;99.20;;;;;;5083208;22;20275;-78
2022/03/12 01:02:15;;;;;;;14.90;13.10;;;4.70;99.50;;;;;;5077388;28;20198;-76
2022/03/12 01:04:42;;;;;;;15.67;13.63;;;4.70;99.40;;;;;;5082652;28;20246;-79
2022/03/12 01:07:10;;;;;;;15.50;13.83;;;4.70;99.40;;;;;;5078203;28;20243;-76
2022/03/12 01:09:37;;;;;;;15.37;13.43;;;4.70;99.10;;;;;;5094114;28;20307;-77
2022/03/12 01:12:05;;;;;;;16.30;14.03;;;4.70;99.20;;;;;;5105116;28;20212;-78
2022/03/12 01:14:32;;;;;;;17.63;14.40;;;4.70;99.40;;;;;;5105298;28;20642;-77
2022/03/12 01:17:00;;;;;;;15.40;13.60;;;4.70;99.60;;;;;;5103314;28;20246;-76
2022/03/12 01:19:27;;;;;;;15.43;12.67;;;4.70;99.50;;;;;;5098324;28;20213;-78
2022/03/12 01:21:54;;;;;;;17.63;13.83;;;4.60;99.70;;;;;;5104467;28;20235;-77
2022/03/12 01:24:21;;;;;;;15.00;13.33;;;4.60;99.90;;;;;;5102752;28;20242;-78
2022/03/12 01:26:48;;;;;;;16.90;13.30;;;4.60;99.90;;;;;;5100428;28;20202;-77
2022/03/12 01:29:16;;;;;;;14.87;12.80;;;4.60;99.90;;;;;;5102669;28;20214;-77
2022/03/12 01:31:43;;;;;;;14.47;12.83;;;4.60;99.90;;;;;;5104927;28;20567;-77
2022/03/12 01:34:11;;;;;;;15.73;13.10;;;4.50;99.90;;;;;;5103143;28;20208;-77
2022/03/12 01:36:39;;;;;;;18.07;13.13;;;4.50;99.90;;;;;;5102334;28;20599;-78
2022/03/12 01:39:06;;;;;;;17.67;13.33;;;4.50;99.90;;;;;;5102297;28;20332;-76
2022/03/12 01:41:40;;;;;;;17.50;14.00;;;4.50;99.90;;;;;;5108711;28;20718;-78
2022/03/12 01:44:08;;;;;;;14.07;12.50;;;4.60;99.90;;;;;;5098208;28;20227;-78
2022/03/12 01:46:40;;;;;;;15.43;12.77;;;4.60;99.90;;;;;;5102234;28;20197;-78
2022/03/12 01:49:10;;;;;;;14.63;12.90;;;4.70;99.90;;;;;;5095362;28;20218;-77
2022/03/12 01:51:39;;;;;;;16.77;12.80;;;4.70;99.90;;;;;;5104892;28;20189;-78
2022/03/12 01:54:07;;;;;;;14.30;11.77;;;4.80;99.90;;;;;;5094873;28;20198;-77
2022/03/12 01:56:35;;;;;;;15.40;12.80;;;4.90;99.30;;;;;;5104023;28;20198;-77
2022/03/12 01:59:02;;;;;;;13.37;11.77;;;4.90;99.10;;;;;;5101766;28;20218;-76
2022/03/12 02:01:30;;;;;;;13.83;11.67;;;5.00;98.80;;;;;;5088882;28;20228;-77
2022/03/12 02:03:59;;;;;;;15.53;12.43;;;5.00;98.70;;;;;;5102707;28;20198;-77
2022/03/12 02:06:28;;;;;;;14.73;11.27;;;5.10;98.80;;;;;;5104276;28;20216;-77
2022/03/12 02:08:58;;;;;;;14.80;11.27;;;5.10;98.80;;;;;;5104953;28;20228;-78
2022/03/12 02:11:28;;;;;;;16.57;12.97;;;5.10;98.90;;;;;;5102865;28;20196;-78
2022/03/12 02:14:00;;;;;;;18.73;14.00;;;5.10;99.90;;;;;;5100996;28;20241;-77
2022/03/12 02:16:27;;;;;;;15.17;13.10;;;5.00;99.90;;;;;;5108950;28;20224;-77
2022/03/12 02:18:54;;;;;;;16.43;13.77;;;4.80;99.90;;;;;;5100514;28;20213;-77
2022/03/12 02:21:35;;;;;;;17.33;13.40;;;4.70;99.90;;;;;;5101052;28;20196;-79
2022/03/12 02:24:05;;;;;;;18.90;14.57;;;4.60;99.90;;;;;;5096983;28;20252;-77
2022/03/12 02:26:32;;;;;;;16.93;14.17;;;4.40;99.90;;;;;;5095451;28;20274;-78
2022/03/12 02:28:59;;;;;;;15.93;13.50;;;4.40;99.90;;;;;;5103350;28;20254;-77
2022/03/12 02:31:27;;;;;;;18.87;15.17;;;4.30;99.90;;;;;;5098525;28;20661;-78
2022/03/12 02:34:01;;;;;;;19.07;14.97;;;4.20;99.90;;;;;;5099964;28;20245;-77
2022/03/12 02:36:28;;;;;;;19.70;15.20;;;4.20;99.90;;;;;;5103702;28;20279;-76
2022/03/12 02:38:57;;;;;;;18.70;14.63;;;4.10;99.90;;;;;;5107999;28;20223;-78
2022/03/12 02:41:25;;;;;;;19.07;15.40;;;4.00;99.90;;;;;;5102902;28;20250;-78
2022/03/12 02:43:53;;;;;;;20.60;14.67;;;3.90;99.90;;;;;;5102817;28;20197;-77
2022/03/12 02:46:20;;;;;;;17.67;15.43;;;3.90;99.90;;;;;;5104591;28;20193;-78
2022/03/12 02:48:53;;;;;;;19.33;14.17;;;3.80;99.90;;;;;;5102913;28;20210;-77
2022/03/12 02:51:21;;;;;;;21.60;16.07;;;3.90;99.90;;;;;;5100141;28;20668;-78
2022/03/12 02:53:50;;;;;;;18.70;14.80;;;3.90;99.90;;;;;;5103182;28;20471;-78
2022/03/12 02:56:18;;;;;;;20.40;15.13;;;3.80;99.90;;;;;;5105562;28;20193;-77
2022/03/12 02:58:46;;;;;;;18.20;14.37;;;3.80;99.90;;;;;;5100520;28;20447;-78
2022/03/12 03:01:14;;;;;;;17.43;14.33;;;3.90;99.90;;;;;;5103238;28;20205;-77
2022/03/12 03:03:42;;;;;;;16.10;14.40;;;3.90;99.90;;;;;;5105673;28;20206;-77
2022/03/12 03:06:10;;;;;;;18.20;14.13;;;3.80;99.90;;;;;;5105659;28;20562;-78
2022/03/12 03:08:39;;;;;;;18.50;14.70;;;3.90;99.90;;;;;;5104289;28;20285;-78
2022/03/12 03:11:12;;;;;;;17.57;14.83;;;3.90;99.90;;;;;;5098600;28;20978;-77
2022/03/12 03:13:43;;;;;;;16.57;14.30;;;3.90;99.90;;;;;;5102296;28;20209;-78
2022/03/12 03:16:21;;;;;;;20.67;15.17;;;3.90;99.90;;;;;;5099873;28;20194;-78
2022/03/12 03:18:52;;;;;;;17.70;14.83;;;3.90;99.90;;;;;;5101591;28;20304;-78
2022/03/12 03:21:20;;;;;;;17.30;14.80;;;3.90;99.90;;;;;;5102996;28;20198;-77
2022/03/12 03:23:47;;;;;;;18.87;14.83;;;3.90;99.90;;;;;;5101028;28;20567;-76
2022/03/12 03:26:19;;;;;;;16.43;14.17;;;3.90;99.90;;;;;;5103622;28;20194;-78
2022/03/12 03:28:46;;;;;;;17.50;14.67;;;3.80;99.90;;;;;;5104927;28;20190;-77
2022/03/12 03:31:15;;;;;;;15.47;13.57;;;3.80;99.90;;;;;;5107212;28;20288;-78
2022/03/12 03:33:42;;;;;;;15.10;13.37;;;3.80;99.90;;;;;;5103860;28;20220;-77
2022/03/12 03:36:08;;;;;;;19.53;14.33;;;3.70;99.90;;;;;;5100156;28;20245;-77
2022/03/12 03:38:36;;;;;;;18.67;14.80;;;3.70;99.90;;;;;;5097660;28;20488;-78
2022/03/12 03:41:03;;;;;;;18.00;15.10;;;3.70;99.90;;;;;;5099056;28;20444;-76
2022/03/12 03:43:30;;;;;;;18.80;14.73;;;3.60;99.90;;;;;;5093156;28;20523;-76
2022/03/12 03:45:58;;;;;;;17.73;14.20;;;3.60;99.90;;;;;;5095384;28;20678;-77
2022/03/12 03:48:26;;;;;;;17.70;14.47;;;3.50;99.90;;;;;;5092525;28;20847;-77
2022/03/12 03:50:54;;;;;;;20.50;14.83;;;3.50;99.90;;;;;;5097920;28;20558;-77
2022/03/12 03:53:24;;;;;;;17.70;14.67;;;3.40;99.90;;;;;;5095881;28;20472;-77
2022/03/12 03:55:53;;;;;;;20.67;15.03;;;3.30;99.90;;;;;;5092321;28;20450;-77
2022/03/12 03:58:20;;;;;;;19.30;16.07;;;3.30;99.90;;;;;;5069308;28;20539;-77
2022/03/12 04:00:57;;;;;;;18.77;14.77;;;3.20;99.90;;;;;;5089306;28;20470;-78
2022/03/12 04:03:29;;;;;;;20.90;15.60;;;3.20;99.90;;;;;;5088768;28;20469;-80
2022/03/12 04:05:56;;;;;;;18.97;14.97;;;3.20;99.90;;;;;;5086748;28;21051;-80
2022/03/12 04:08:23;;;;;;;17.83;15.03;;;3.20;99.90;;;;;;5084215;28;20462;-79
2022/03/12 04:10:50;;;;;;;19.97;14.30;;;3.20;99.90;;;;;;5098293;28;20472;-85
2022/03/12 04:13:19;;;;;;;17.57;14.90;;;3.20;99.90;;;;;;5096263;28;20468;-79
2022/03/12 04:15:47;;;;;;;18.27;14.60;;;3.20;99.90;;;;;;5099101;28;20436;-79
2022/03/12 04:18:15;;;;;;;18.17;15.00;;;3.20;99.90;;;;;;5090653;28;20509;-79
2022/03/12 04:20:47;;;;;;;21.00;15.60;;;3.20;99.90;;;;;;5087406;28;20908;-79
2022/03/12 04:23:19;;;;;;;20.10;16.10;;;3.20;99.90;;;;;;5092765;28;20467;-78
2022/03/12 04:25:47;;;;;;;23.43;16.67;;;3.20;99.90;;;;;;5091216;28;20957;-80
2022/03/12 04:28:14;;;;;;;23.77;17.37;;;3.20;99.90;;;;;;5085438;28;20898;-82
2022/03/12 04:30:41;;;;;;;25.70;18.03;;;3.20;99.90;;;;;;5094100;28;20853;-80
2022/03/12 04:33:10;;;;;;;23.83;16.93;;;3.20;99.90;;;;;;5102209;28;20471;-83
2022/03/12 04:35:38;;;;;;;20.60;16.10;;;3.20;99.90;;;;;;5101137;28;20979;-81
2022/03/12 04:38:11;;;;;;;21.67;16.10;;;3.20;99.90;;;;;;5092370;28;20497;-81
2022/03/12 04:40:40;;;;;;;18.37;15.93;;;3.20;99.90;;;;;;5099176;28;20466;-78
2022/03/12 04:43:09;;;;;;;19.80;16.43;;;3.20;99.90;;;;;;5103804;28;20205;-77
2022/03/12 04:45:36;;;;;;;17.63;15.53;;;3.20;99.90;;;;;;5096680;28;20243;-76
2022/03/12 04:48:04;;;;;;;21.97;16.87;;;3.20;99.90;;;;;;5098923;28;20225;-77
2022/03/12 04:50:31;;;;;;;21.53;17.40;;;3.20;99.90;;;;;;5092405;28;20218;-77
2022/03/12 04:53:01;;;;;;;22.63;16.97;;;3.20;99.90;;;;;;5095477;28;20656;-77
2022/03/12 04:55:31;;;;;;;21.40;16.20;;;3.20;99.90;;;;;;5086011;28;20439;-76
2022/03/12 04:57:58;;;;;;;21.33;16.83;;;3.30;99.90;;;;;;5094556;28;20193;-77
2022/03/12 05:00:27;;;;;;;20.43;16.40;;;3.30;99.90;;;;;;5097818;28;20217;-78
2022/03/12 05:02:55;;;;;;;21.10;15.93;;;3.30;99.90;;;;;;5090465;28;20430;-76
2022/03/12 05:05:22;;;;;;;19.40;16.60;;;3.40;99.90;;;;;;5092495;28;20695;-77
2022/03/12 05:07:50;;;;;;;20.10;16.30;;;3.40;99.90;;;;;;5088453;28;20194;-77
2022/03/12 05:10:18;;;;;;;21.10;16.43;;;3.40;99.90;;;;;;5095271;28;20484;-77
2022/03/12 05:12:48;;;;;;;19.20;15.40;;;3.40;99.90;;;;;;5100323;28;20671;-76
2022/03/12 05:15:16;;;;;;;19.57;15.67;;;3.40;99.90;;;;;;5107293;28;20812;-77
2022/03/12 05:17:46;;;;;;;18.33;15.27;;;3.30;99.90;;;;;;5099228;28;20537;-78
2022/03/12 05:20:13;;;;;;;20.40;15.53;;;3.30;99.90;;;;;;5099561;28;20456;-76
2022/03/12 05:22:40;;;;;;;22.03;18.17;;;3.20;99.90;;;;;;5092987;28;20440;-78
2022/03/12 05:25:08;;;;;;;21.27;17.20;;;3.20;99.90;;;;;;5102959;28;20850;-77
2022/03/12 05:27:35;;;;;;;18.00;15.73;;;3.20;99.90;;;;;;5094390;28;20442;-77
2022/03/12 05:30:03;;;;;;;21.27;16.80;;;3.20;99.90;;;;;;5101481;28;20454;-81
2022/03/12 05:32:32;;;;;;;20.83;16.07;;;3.20;99.90;;;;;;5100716;28;20446;-81
2022/03/12 05:42:27;;;;;;;22.17;17.07;;;3.20;99.90;;;;;;5080216;28;20257;-82
2022/03/12 05:44:57;;;;;;;20.97;16.63;;;3.20;99.90;;;;;;5092156;28;20717;-80
2022/03/12 05:47:25;;;;;;;18.17;15.13;;;3.20;99.90;;;;;;5093475;28;20531;-79
2022/03/12 05:49:53;;;;;;;21.57;16.90;;;3.20;99.90;;;;;;5091089;28;20211;-80
2022/03/12 05:52:20;;;;;;;19.73;16.13;;;3.20;99.90;;;;;;5097004;28;20452;-80
2022/03/12 05:54:48;;;;;;;22.50;16.30;;;3.30;99.90;;;;;;5099133;28;20287;-79
2022/03/12 05:57:15;;;;;;;21.77;16.50;;;3.30;99.90;;;;;;5099748;28;20313;-80
2022/03/12 05:59:42;;;;;;;18.63;15.40;;;3.40;99.90;;;;;;5097615;28;20231;-80
2022/03/12 06:02:09;;;;;;;21.87;17.40;;;3.30;99.90;;;;;;5107413;28;20443;-80
2022/03/12 06:04:40;;;;;;;18.97;16.30;;;3.40;99.90;;;;;;5097907;28;20189;-78
2022/03/12 06:07:09;;;;;;;22.13;16.43;;;3.40;99.90;;;;;;5105283;28;20261;-79
2022/03/12 06:09:37;;;;;;;20.67;15.67;;;3.50;99.90;;;;;;5096804;28;20498;-81
2022/03/12 06:12:05;;;;;;;19.87;15.17;;;3.50;99.90;;;;;;5106431;28;20198;-79
2022/03/12 06:14:38;;;;;;;20.13;17.00;;;3.50;99.90;;;;;;5102207;28;20209;-79
2022/03/12 06:17:06;;;;;;;19.80;16.53;;;3.60;99.90;;;;;;5096596;28;20531;-80
2022/03/12 06:19:34;;;;;;;19.60;15.90;;;3.70;99.90;;;;;;5100689;28;20209;-78
2022/03/12 06:22:02;;;;;;;19.00;16.30;;;3.80;99.90;;;;;;5092344;28;20194;-80
2022/03/12 06:24:29;;;;;;;19.57;16.97;;;3.80;99.90;;;;;;5086527;28;20430;-78
2022/03/12 06:26:57;;;;;;;23.07;17.00;;;3.90;99.90;;;;;;5083404;28;20437;-80
2022/03/12 06:29:25;;;;;;;21.87;16.67;;;4.00;99.90;;;;;;5086916;28;20248;-79
2022/03/12 06:31:52;;;;;;;19.43;16.73;;;4.30;99.90;;;;;;5093680;28;20251;-79
2022/03/12 06:34:19;;;;;;;19.47;16.43;;;4.50;99.90;;;;;;5098705;28;20230;-80
2022/03/12 06:36:46;;;;;;;18.87;15.67;;;4.60;99.90;;;;;;5105631;28;20671;-80
2022/03/12 06:39:14;;;;;;;19.20;14.63;;;4.80;99.90;;;;;;5098797;28;20659;-79
2022/03/12 06:41:45;;;;;;;19.17;15.27;;;5.00;99.90;;;;;;5087320;28;20286;-79
2022/03/12 06:44:17;;;;;;;19.50;14.60;;;5.20;99.90;;;;;;5092964;28;20190;-80
2022/03/12 06:46:44;;;;;;;21.40;15.60;;;5.50;99.90;;;;;;5096136;28;20198;-79
2022/03/12 06:49:11;;;;;;;18.30;13.87;;;5.60;99.90;;;;;;5099619;28;20226;-78
2022/03/12 06:51:39;;;;;;;17.47;13.20;;;5.70;99.90;;;;;;5090802;28;20592;-79
2022/03/12 06:54:07;;;;;;;18.40;13.53;;;5.70;99.90;;;;;;5101332;28;20257;-79
2022/03/12 06:56:39;;;;;;;19.47;12.47;;;5.70;99.90;;;;;;5099013;28;20204;-79
2022/03/12 06:59:06;;;;;;;19.13;13.47;;;5.70;99.90;;;;;;5128109;22;20260;-75
2022/03/12 07:01:33;;;;;;;17.83;13.53;;;5.90;99.90;;;;;;5051116;28;20674;-79
2022/03/12 07:04:00;;;;;;;16.50;11.50;;;5.90;99.90;;;;;;5042891;28;20197;-79
2022/03/12 07:06:27;;;;;;;16.90;13.00;;;6.00;99.90;;;;;;5035073;28;20192;-77
2022/03/12 07:08:54;;;;;;;18.67;12.70;;;6.20;99.90;;;;;;5050427;28;20250;-77
2022/03/12 07:11:21;;;;;;;20.83;12.83;;;6.20;99.90;;;;;;5032236;28;20724;-76
2022/03/12 07:13:49;;;;;;;17.50;12.43;;;6.20;99.90;;;;;;5032424;28;20724;-76
2022/03/12 07:16:16;;;;;;;17.73;12.07;;;6.40;99.90;;;;;;5029690;28;20259;-78
2022/03/12 07:18:43;;;;;;;19.07;13.40;;;6.50;99.90;;;;;;5049841;28;20200;-76
2022/03/12 07:21:10;;;;;;;19.67;12.70;;;6.60;99.90;;;;;;5049312;28;20704;-78
2022/03/12 07:23:37;;;;;;;14.93;11.70;;;6.60;99.90;;;;;;5056853;28;20201;-80
2022/03/12 07:26:04;;;;;;;18.17;12.63;;;6.70;99.90;;;;;;5044660;28;20199;-80
2022/03/12 07:28:32;;;;;;;18.50;13.43;;;6.90;99.90;;;;;;5061178;28;20212;-79
2022/03/12 07:31:01;;;;;;;17.23;12.00;;;7.00;99.90;;;;;;5060873;28;20218;-79
2022/03/12 07:33:28;;;;;;;17.70;12.07;;;7.20;99.90;;;;;;5052402;28;20213;-79
2022/03/12 07:35:56;;;;;;;19.63;13.47;;;7.50;99.90;;;;;;5049116;28;20614;-77
2022/03/12 07:38:23;;;;;;;16.10;13.10;;;7.80;99.90;;;;;;5044669;28;20700;-77
2022/03/12 07:40:50;;;;;;;20.00;16.17;;;8.20;99.80;;;;;;5036087;28;20636;-78
2022/03/12 07:43:17;;;;;;;21.50;15.00;;;8.50;99.80;;;;;;5035884;28;20195;-80
2022/03/12 07:45:44;;;;;;;17.83;13.50;;;8.70;99.30;;;;;;5050021;28;20200;-80
2022/03/12 07:48:13;;;;;;;19.30;13.13;;;9.10;98.40;;;;;;5035819;28;20658;-78
2022/03/12 07:50:40;;;;;;;18.70;13.57;;;9.20;97.60;;;;;;5037256;28;20219;-79
2022/03/12 07:53:08;;;;;;;19.03;14.50;;;9.30;98.20;;;;;;5036848;28;20207;-78
2022/03/12 07:55:35;;;;;;;20.10;14.43;;;9.60;98.50;;;;;;5035762;28;20256;-78
2022/03/12 07:58:01;;;;;;;16.90;13.10;;;9.70;96.70;;;;;;5048954;28;20203;-79
2022/03/12 08:00:30;;;;;;;20.93;13.20;;;9.80;96.30;;;;;;5049942;28;20223;-79
2022/03/12 08:02:57;;;;;;;19.73;14.40;;;9.90;96.60;;;;;;5051940;28;20274;-78
2022/03/12 08:05:25;;;;;;;18.23;13.47;;;10.00;96.10;;;;;;5049824;28;20203;-78
2022/03/12 08:07:55;;;;;;;16.70;13.23;;;10.30;95.80;;;;;;5047241;28;20227;-78
2022/03/12 08:10:22;;;;;;;19.37;13.97;;;10.50;95.60;;;;;;5036680;28;20254;-78
2022/03/12 08:12:50;;;;;;;17.40;12.90;;;10.30;95.60;;;;;;5031163;28;20654;-78
2022/03/12 08:15:19;;;;;;;16.30;13.80;;;10.60;95.30;;;;;;5031084;28;20223;-79
2022/03/12 08:17:48;;;;;;;19.37;14.53;;;10.60;95.80;;;;;;5026990;28;21076;-78
2022/03/12 08:20:19;;;;;;;17.50;13.70;;;10.60;95.40;;;;;;5046048;28;20653;-79
2022/03/12 08:22:48;;;;;;;18.47;13.37;;;10.60;95.70;;;;;;5025926;28;20212;-80
2022/03/12 08:25:16;;;;;;;17.87;14.17;;;10.70;95.50;;;;;;5044614;28;20295;-79
2022/03/12 08:27:44;;;;;;;16.73;13.60;;;10.80;95.20;;;;;;5049372;28;20205;-79
2022/03/12 08:30:12;;;;;;;20.67;15.07;;;10.90;95.70;;;;;;5028122;28;20230;-79
2022/03/12 08:32:40;;;;;;;17.97;14.80;;;10.90;95.40;;;;;;5047102;28;20209;-79
2022/03/12 08:35:09;;;;;;;20.80;14.30;;;10.90;95.10;;;;;;5028824;28;20292;-80
2022/03/12 08:37:37;;;;;;;17.67;13.50;;;10.90;95.70;;;;;;5030626;28;20257;-80
2022/03/12 08:40:07;;;;;;;18.47;13.97;;;11.00;95.40;;;;;;5030023;28;20221;-79
2022/03/12 08:42:34;;;;;;;20.97;14.57;;;10.80;95.70;;;;;;5032556;28;20225;-79
2022/03/12 08:45:01;;;;;;;18.03;13.87;;;11.10;95.90;;;;;;5035930;28;20219;-80
2022/03/12 08:47:28;;;;;;;19.70;14.20;;;11.40;95.00;;;;;;5019693;28;20595;-81
2022/03/12 08:49:55;;;;;;;20.53;14.70;;;11.60;95.10;;;;;;5033256;28;20218;-80
2022/03/12 08:52:22;;;;;;;18.37;13.73;;;11.60;95.00;;;;;;5049271;28;20751;-80
2022/03/12 08:54:49;;;;;;;19.27;14.33;;;12.00;94.90;;;;;;5026366;28;20272;-81
2022/03/12 08:57:17;;;;;;;18.07;14.50;;;12.20;94.00;;;;;;5027081;28;20207;-80
2022/03/12 08:59:44;;;;;;;20.20;14.47;;;12.10;93.90;;;;;;5046653;28;20284;-80
2022/03/12 09:02:13;;;;;;;18.07;13.83;;;12.30;94.80;;;;;;5044799;28;20210;-81
2022/03/12 09:04:40;;;;;;;15.80;13.07;;;12.50;93.60;;;;;;5026010;28;20254;-81
2022/03/12 09:07:07;;;;;;;15.43;12.33;;;12.90;93.70;;;;;;5032034;28;20671;-80
2022/03/12 09:09:33;;;;;;;18.17;13.40;;;13.20;93.00;;;;;;5027698;28;20221;-80
2022/03/12 09:12:00;;;;;;;17.43;13.90;;;13.30;92.50;;;;;;5045437;28;20208;-80
2022/03/12 09:14:29;;;;;;;19.17;14.47;;;13.30;92.10;;;;;;5044464;28;20698;-80
2022/03/12 09:16:56;;;;;;;20.20;14.80;;;13.40;92.20;;;;;;5047444;28;20194;-80
2022/03/12 09:19:25;;;;;;;16.60;13.97;;;13.60;91.80;;;;;;5028888;28;20701;-80
2022/03/12 09:21:51;;;;;;;21.33;14.80;;;13.70;92.20;;;;;;5031376;28;20266;-80
2022/03/12 09:24:18;;;;;;;18.10;14.97;;;13.90;91.50;;;;;;5052801;28;20217;-80
2022/03/12 09:26:45;;;;;;;22.47;16.53;;;14.00;91.60;;;;;;5026113;28;20211;-80
2022/03/12 09:29:13;;;;;;;18.27;16.27;;;13.70;91.40;;;;;;5026429;28;20234;-80
2022/03/12 09:31:41;;;;;;;18.53;16.50;;;13.40;92.20;;;;;;5043596;28;20233;-80
2022/03/12 09:34:09;;;;;;;19.47;16.47;;;13.20;92.50;;;;;;5028150;28;20214;-80
2022/03/12 09:36:36;;;;;;;19.47;16.37;;;12.90;92.70;;;;;;5030249;28;20191;-80
2022/03/12 09:39:04;;;;;;;18.47;16.30;;;13.00;92.50;;;;;;5035323;28;20295;-80
2022/03/12 09:41:31;;;;;;;17.37;15.53;;;12.90;92.90;;;;;;5052350;28;20196;-80
2022/03/12 09:43:58;;;;;;;24.80;16.57;;;12.90;93.00;;;;;;5026326;28;20203;-81
2022/03/12 09:46:25;;;;;;;20.37;16.47;;;12.80;92.60;;;;;;5037383;28;20210;-81
2022/03/12 09:48:54;;;;;;;17.67;13.27;;;12.70;92.60;;;;;;5027648;28;20196;-80
2022/03/12 09:51:21;;;;;;;18.90;14.07;;;12.70;92.10;;;;;;5053984;28;20261;-80
2022/03/12 09:53:48;;;;;;;19.10;12.40;;;12.90;92.40;;;;;;5031161;28;20203;-80
2022/03/12 09:56:15;;;;;;;16.87;12.60;;;12.90;92.40;;;;;;5050566;28;20219;-80
2022/03/12 09:58:42;;;;;;;16.67;12.80;;;12.90;92.60;;;;;;5030230;28;20257;-80
2022/03/12 10:01:10;;;;;;;17.17;12.27;;;13.20;92.60;;;;;;5029879;28;20215;-80
2022/03/12 10:03:41;;;;;;;18.77;15.47;;;13.40;92.00;;;;;;5050168;28;20291;-80
2022/03/12 10:06:10;;;;;;;18.30;15.47;;;13.40;91.00;;;;;;5026863;28;20211;-81
2022/03/12 10:08:37;;;;;;;19.93;17.10;;;13.30;92.10;;;;;;5035427;28;20203;-80
2022/03/12 10:11:05;;;;;;;18.60;15.10;;;13.40;91.10;;;;;;5034956;28;20245;-81
2022/03/12 10:13:31;;;;;;;19.30;16.43;;;13.40;91.50;;;;;;5050540;28;20214;-81
2022/03/12 10:15:59;;;;;;;21.50;16.03;;;13.40;91.50;;;;;;5030926;28;20223;-82
2022/03/12 10:18:26;;;;;;;20.53;16.50;;;13.50;91.60;;;;;;5029290;28;20227;-80
2022/03/12 10:20:53;;;;;;;19.60;15.70;;;13.50;91.60;;;;;;5056566;28;20215;-80
2022/03/12 10:23:21;;;;;;;18.00;15.07;;;13.50;91.90;;;;;;5060130;28;20206;-80
2022/03/12 10:25:48;;;;;;;18.55;16.58;;;13.50;91.60;;;;;;5043095;28;20467;-81
2022/03/12 10:28:15;;;;;;;18.42;15.75;;;13.70;92.40;;;;;;5058966;28;20432;-81
2022/03/12 10:30:42;;;;;;;17.53;15.50;;;13.90;91.90;;;;;;5030908;28;20276;-78
2022/03/12 10:33:09;;;;;;;22.80;16.50;;;14.00;91.70;;;;;;5053288;28;20191;-80
2022/03/12 10:35:37;;;;;;;18.40;15.63;;;14.00;91.40;;;;;;5037381;28;20218;-80
2022/03/12 10:38:10;;;;;;;20.53;16.50;;;13.70;92.10;;;;;;5048933;28;20203;-80
2022/03/12 10:40:39;;;;;;;18.37;16.13;;;13.70;92.00;;;;;;5048834;28;20254;-80
2022/03/12 10:43:12;;;;;;;17.20;15.27;;;13.50;91.90;;;;;;5058482;28;20191;-80
2022/03/12 10:45:42;;;;;;;19.20;15.77;;;13.50;92.10;;;;;;5020725;28;20196;-80
2022/03/12 10:48:10;;;;;;;19.20;15.70;;;13.50;92.30;;;;;;5052352;28;20680;-79
2022/03/12 10:50:40;;;;;;;18.87;15.43;;;13.60;92.60;;;;;;5030279;28;20219;-80
2022/03/12 10:53:08;;;;;;;18.27;15.13;;;13.80;92.60;;;;;;5058162;28;20203;-80
2022/03/12 10:55:39;;;;;;;18.63;15.17;;;13.80;92.00;;;;;;5060731;28;20749;-80
2022/03/12 10:58:11;;;;;;;20.20;15.80;;;13.80;92.60;;;;;;5031381;28;20207;-80
2022/03/12 11:00:39;;;;;;;20.23;16.10;;;13.60;92.20;;;;;;5041003;28;20313;-80
2022/03/12 11:03:11;;;;;;;19.57;15.30;;;13.80;92.90;;;;;;5039865;28;20206;-80
2022/03/12 11:05:38;;;;;;;18.13;15.73;;;13.60;92.40;;;;;;5038964;28;20223;-79
2022/03/12 11:08:24;;;;;;;18.07;15.90;;;13.60;92.20;;;;;;5042383;28;20676;-80
2022/03/12 11:10:54;;;;;;;16.47;14.70;;;13.70;92.80;;;;;;5055034;28;20207;-80
2022/03/12 11:13:34;;;;;;;19.00;16.47;;;13.90;92.70;;;;;;5047521;28;20204;-79
2022/03/12 11:16:12;;;;;;;22.53;16.40;;;13.90;92.50;;;;;;5028163;28;20227;-79
2022/03/12 11:18:41;;;;;;;16.70;15.00;;;13.80;92.80;;;;;;5035488;28;20663;-80
2022/03/12 11:21:07;;;;;;;17.10;14.90;;;13.90;92.90;;;;;;5029395;28;20250;-79
2022/03/12 11:23:34;;;;;;;17.60;15.77;;;14.00;93.00;;;;;;5036027;28;20206;-79
2022/03/12 11:26:06;;;;;;;17.60;15.77;;;14.00;92.50;;;;;;5058165;28;20242;-79
2022/03/12 11:28:37;;;;;;;18.87;15.30;;;13.90;92.30;;;;;;5051869;28;20261;-79
2022/03/12 11:31:07;;;;;;;18.07;15.13;;;14.00;93.00;;;;;;5034042;28;20593;-79
2022/03/12 11:33:35;;;;;;;17.27;14.87;;;13.90;93.30;;;;;;5035627;28;20558;-79
2022/03/12 11:36:10;;;;;;;17.67;14.73;;;13.90;93.50;;;;;;5051623;28;20265;-80
2022/03/12 11:38:37;;;;;;;16.48;14.23;;;13.90;94.00;;;;;;5031099;28;20505;-79
2022/03/12 11:41:06;;;;;;;16.40;14.50;;;13.90;94.50;;;;;;5037009;28;20682;-79
2022/03/12 11:43:39;;;;;;;16.30;13.80;;;13.70;94.80;;;;;;5039427;28;20628;-79
2022/03/12 11:46:07;;;;;;;16.97;15.17;;;13.80;95.20;;;;;;5037397;28;20192;-79
2022/03/12 11:48:36;;;;;;;18.70;16.10;;;13.80;94.90;;;;;;5033178;28;20440;-80
2022/03/12 11:51:04;;;;;;;20.07;13.43;;;13.90;95.10;;;;;;5049765;28;20242;-79
2022/03/12 11:53:36;;;;;;;18.00;14.67;;;13.90;95.10;;;;;;5025457;28;20698;-79
2022/03/12 11:56:05;;;;;;;14.73;13.23;;;13.90;95.60;;;;;;5048394;28;20615;-79
2022/03/12 11:58:33;;;;;;;18.30;15.02;;;13.90;95.70;;;;;;5044919;28;20435;-80
2022/03/12 12:01:01;;;;;;;17.63;14.67;;;14.00;95.80;;;;;;5036636;28;20226;-80
2022/03/12 12:03:29;;;;;;;15.57;13.97;;;14.00;95.90;;;;;;5028230;28;20230;-84
2022/03/12 12:05:56;;;;;;;15.33;13.20;;;14.10;96.00;;;;;;5035466;28;20286;-78
2022/03/12 12:08:27;;;;;;;15.37;12.57;;;14.00;96.20;;;;;;5031079;28;20203;-81
2022/03/12 12:10:58;;;;;;;15.07;13.00;;;14.10;96.30;;;;;;5035612;28;20241;-78
2022/03/12 12:13:25;;;;;;;15.00;13.33;;;14.10;96.00;;;;;;5035720;28;20281;-78
2022/03/12 12:15:52;;;;;;;18.87;13.43;;;14.10;96.20;;;;;;5036407;28;20296;-78
2022/03/12 12:18:22;;;;;;;15.77;13.03;;;14.10;96.10;;;;;;5050899;28;20844;-78
2022/03/12 12:20:49;;;;;;;13.23;11.83;;;14.10;96.40;;;;;;5030696;28;20242;-78
2022/03/12 12:23:18;;;;;;;14.73;12.80;;;14.00;96.80;;;;;;5052310;28;20215;-79
2022/03/12 12:25:46;;;;;;;14.37;12.87;;;14.10;96.20;;;;;;5026358;28;20719;-79
2022/03/12 12:28:18;;;;;;;20.70;13.63;;;14.00;96.30;;;;;;5038955;28;20210;-80
2022/03/12 12:30:47;;;;;;;14.80;12.80;;;13.90;95.80;;;;;;5033604;28;20254;-80
2022/03/12 12:33:24;;;;;;;15.03;13.33;;;13.90;95.80;;;;;;5045686;28;20560;-80
2022/03/12 12:35:52;;;;;;;14.87;12.97;;;13.80;95.90;;;;;;5037018;28;20303;-79
2022/03/12 12:38:22;;;;;;;17.37;13.47;;;13.90;96.30;;;;;;5039087;28;20624;-79
2022/03/12 12:40:51;;;;;;;16.17;12.60;;;13.90;96.20;;;;;;5039268;28;20560;-80
2022/03/12 12:43:24;;;;;;;14.30;12.90;;;13.80;96.60;;;;;;5032319;28;20210;-80
2022/03/12 12:46:09;;;;;;;14.83;13.00;;;13.90;96.40;;;;;;5038450;28;20198;-80